sensor_id;sensor_type;location;lat;lon;timestamp;P1;durP1;ratioP1;P2;durP2;ratioP2
64601;SDS011;51013;42.630;23.192;2022-11-14T00:00:00;0.20;;;0.20;;
64601;SDS011;51013;42.630;23.192;2022-11-14T00:02:30;0.45;;;0.45;;
64601;SDS011;51013;42.630;23.192;2022-11-14T00:04:58;3.70;;;1.25;;
64601;SDS011;51013;42.630;23.192;2022-11-14T00:07:28;0.28;;;0.28;;
64601;SDS011;51013;42.630;23.192;2022-11-14T00:09:55;0.30;;;0.20;;
64601;SDS011;51013;42.630;23.192;2022-11-14T00:12:22;1.13;;;0.95;;
64601;SDS011;51013;42.630;23.192;2022-11-14T00:14:50;1.63;;;0.63;;
64601;SDS011;51013;42.630;23.192;2022-11-14T00:17:19;2.03;;;0.73;;
64601;SDS011;51013;42.630;23.192;2022-11-14T00:19:46;1.10;;;1.00;;
64601;SDS011;51013;42.630;23.192;2022-11-14T00:22:16;1.38;;;0.73;;
64601;SDS011;51013;42.630;23.192;2022-11-14T00:24:43;0.65;;;0.60;;
64601;SDS011;51013;42.630;23.192;2022-11-14T00:27:10;1.30;;;0.90;;
64601;SDS011;51013;42.630;23.192;2022-11-14T00:29:37;1.63;;;0.77;;
64601;SDS011;51013;42.630;23.192;2022-11-14T00:32:06;2.17;;;1.55;;
64601;SDS011;51013;42.630;23.192;2022-11-14T00:34:33;0.28;;;0.28;;
64601;SDS011;51013;42.630;23.192;2022-11-14T00:37:00;0.00;;;0.00;;
64601;SDS011;51013;42.630;23.192;2022-11-14T00:39:28;3.17;;;0.70;;
64601;SDS011;51013;42.630;23.192;2022-11-14T00:41:55;0.50;;;0.50;;
64601;SDS011;51013;42.630;23.192;2022-11-14T00:44:22;0.90;;;0.65;;
64601;SDS011;51013;42.630;23.192;2022-11-14T00:46:49;0.45;;;0.45;;
64601;SDS011;51013;42.630;23.192;2022-11-14T00:49:16;0.32;;;0.32;;
64601;SDS011;51013;42.630;23.192;2022-11-14T00:51:43;0.85;;;0.30;;
64601;SDS011;51013;42.630;23.192;2022-11-14T00:54:10;3.35;;;2.33;;
64601;SDS011;51013;42.630;23.192;2022-11-14T00:56:38;9.20;;;1.10;;
64601;SDS011;51013;42.630;23.192;2022-11-14T00:59:05;1.52;;;1.42;;
64601;SDS011;51013;42.630;23.192;2022-11-14T01:01:32;0.08;;;0.08;;
64601;SDS011;51013;42.630;23.192;2022-11-14T01:04:00;1.23;;;0.85;;
64601;SDS011;51013;42.630;23.192;2022-11-14T01:06:27;0.68;;;0.45;;
64601;SDS011;51013;42.630;23.192;2022-11-14T01:08:54;0.95;;;0.85;;
64601;SDS011;51013;42.630;23.192;2022-11-14T01:11:21;0.75;;;0.75;;
64601;SDS011;51013;42.630;23.192;2022-11-14T01:13:50;0.95;;;0.85;;
64601;SDS011;51013;42.630;23.192;2022-11-14T01:16:17;1.17;;;0.40;;
64601;SDS011;51013;42.630;23.192;2022-11-14T01:18:45;1.02;;;0.85;;
64601;SDS011;51013;42.630;23.192;2022-11-14T01:21:13;1.80;;;0.88;;
64601;SDS011;51013;42.630;23.192;2022-11-14T01:23:40;0.70;;;0.30;;
64601;SDS011;51013;42.630;23.192;2022-11-14T01:26:08;2.00;;;0.77;;
64601;SDS011;51013;42.630;23.192;2022-11-14T01:28:35;2.60;;;1.60;;
64601;SDS011;51013;42.630;23.192;2022-11-14T01:31:08;0.35;;;0.35;;
64601;SDS011;51013;42.630;23.192;2022-11-14T01:33:36;1.33;;;0.88;;
64601;SDS011;51013;42.630;23.192;2022-11-14T01:36:04;2.25;;;1.27;;
64601;SDS011;51013;42.630;23.192;2022-11-14T01:38:31;0.55;;;0.43;;
64601;SDS011;51013;42.630;23.192;2022-11-14T01:40:59;0.28;;;0.28;;
64601;SDS011;51013;42.630;23.192;2022-11-14T01:43:29;0.00;;;0.00;;
64601;SDS011;51013;42.630;23.192;2022-11-14T01:45:59;1.85;;;1.30;;
64601;SDS011;51013;42.630;23.192;2022-11-14T01:48:36;0.13;;;0.13;;
64601;SDS011;51013;42.630;23.192;2022-11-14T01:51:14;1.02;;;0.95;;
64601;SDS011;51013;42.630;23.192;2022-11-14T01:53:46;0.38;;;0.38;;
64601;SDS011;51013;42.630;23.192;2022-11-14T01:56:17;0.80;;;0.60;;
64601;SDS011;51013;42.630;23.192;2022-11-14T01:58:48;0.30;;;0.20;;
64601;SDS011;51013;42.630;23.192;2022-11-14T02:01:20;0.20;;;0.20;;
64601;SDS011;51013;42.630;23.192;2022-11-14T02:03:49;0.57;;;0.45;;
64601;SDS011;51013;42.630;23.192;2022-11-14T02:06:20;0.20;;;0.20;;
64601;SDS011;51013;42.630;23.192;2022-11-14T02:08:50;0.85;;;0.60;;
64601;SDS011;51013;42.630;23.192;2022-11-14T02:11:20;4.05;;;0.98;;
64601;SDS011;51013;42.630;23.192;2022-11-14T02:13:47;0.30;;;0.30;;
64601;SDS011;51013;42.630;23.192;2022-11-14T02:16:15;0.10;;;0.10;;
64601;SDS011;51013;42.630;23.192;2022-11-14T02:18:42;1.33;;;0.60;;
64601;SDS011;51013;42.630;23.192;2022-11-14T02:21:11;1.02;;;0.52;;
64601;SDS011;51013;42.630;23.192;2022-11-14T02:23:37;0.80;;;0.77;;
64601;SDS011;51013;42.630;23.192;2022-11-14T02:26:04;0.52;;;0.52;;
64601;SDS011;51013;42.630;23.192;2022-11-14T02:28:31;1.13;;;0.73;;
64601;SDS011;51013;42.630;23.192;2022-11-14T02:30:59;0.65;;;0.65;;
64601;SDS011;51013;42.630;23.192;2022-11-14T02:33:26;1.88;;;1.52;;
64601;SDS011;51013;42.630;23.192;2022-11-14T02:35:53;0.65;;;0.65;;
64601;SDS011;51013;42.630;23.192;2022-11-14T02:38:21;0.93;;;0.82;;
64601;SDS011;51013;42.630;23.192;2022-11-14T02:40:48;0.98;;;0.40;;
64601;SDS011;51013;42.630;23.192;2022-11-14T02:43:16;2.95;;;2.38;;
64601;SDS011;51013;42.630;23.192;2022-11-14T02:45:43;2.90;;;1.58;;
64601;SDS011;51013;42.630;23.192;2022-11-14T02:48:10;0.57;;;0.57;;
64601;SDS011;51013;42.630;23.192;2022-11-14T02:50:37;1.88;;;1.42;;
64601;SDS011;51013;42.630;23.192;2022-11-14T02:53:04;0.75;;;0.40;;
64601;SDS011;51013;42.630;23.192;2022-11-14T02:55:32;0.08;;;0.08;;
64601;SDS011;51013;42.630;23.192;2022-11-14T02:57:59;0.60;;;0.40;;
64601;SDS011;51013;42.630;23.192;2022-11-14T03:00:26;0.10;;;0.10;;
64601;SDS011;51013;42.630;23.192;2022-11-14T03:02:53;1.20;;;0.93;;
64601;SDS011;51013;42.630;23.192;2022-11-14T03:05:21;0.60;;;0.60;;
64601;SDS011;51013;42.630;23.192;2022-11-14T03:07:52;0.10;;;0.10;;
64601;SDS011;51013;42.630;23.192;2022-11-14T03:10:19;0.30;;;0.07;;
64601;SDS011;51013;42.630;23.192;2022-11-14T03:12:53;6.55;;;1.70;;
64601;SDS011;51013;42.630;23.192;2022-11-14T03:15:22;0.65;;;0.60;;
64601;SDS011;51013;42.630;23.192;2022-11-14T03:17:49;4.05;;;1.67;;
64601;SDS011;51013;42.630;23.192;2022-11-14T03:20:19;0.93;;;0.93;;
64601;SDS011;51013;42.630;23.192;2022-11-14T03:22:47;1.08;;;0.82;;
64601;SDS011;51013;42.630;23.192;2022-11-14T03:25:14;1.27;;;1.02;;
64601;SDS011;51013;42.630;23.192;2022-11-14T03:27:41;0.93;;;0.77;;
64601;SDS011;51013;42.630;23.192;2022-11-14T03:30:10;2.00;;;0.90;;
64601;SDS011;51013;42.630;23.192;2022-11-14T03:32:37;0.28;;;0.20;;
64601;SDS011;51013;42.630;23.192;2022-11-14T03:35:05;1.67;;;1.02;;
64601;SDS011;51013;42.630;23.192;2022-11-14T03:37:33;1.58;;;0.73;;
64601;SDS011;51013;42.630;23.192;2022-11-14T03:39:59;0.25;;;0.25;;
64601;SDS011;51013;42.630;23.192;2022-11-14T03:42:26;1.55;;;1.20;;
64601;SDS011;51013;42.630;23.192;2022-11-14T03:44:53;0.20;;;0.20;;
64601;SDS011;51013;42.630;23.192;2022-11-14T03:47:23;0.45;;;0.45;;
64601;SDS011;51013;42.630;23.192;2022-11-14T03:49:49;0.63;;;0.63;;
64601;SDS011;51013;42.630;23.192;2022-11-14T03:52:16;0.70;;;0.47;;
64601;SDS011;51013;42.630;23.192;2022-11-14T03:54:43;0.10;;;0.10;;
64601;SDS011;51013;42.630;23.192;2022-11-14T03:57:10;0.00;;;0.00;;
64601;SDS011;51013;42.630;23.192;2022-11-14T03:59:37;0.45;;;0.45;;
64601;SDS011;51013;42.630;23.192;2022-11-14T04:02:04;0.60;;;0.60;;
64601;SDS011;51013;42.630;23.192;2022-11-14T04:04:32;0.55;;;0.35;;
64601;SDS011;51013;42.630;23.192;2022-11-14T04:06:59;0.10;;;0.10;;
64601;SDS011;51013;42.630;23.192;2022-11-14T04:09:26;0.15;;;0.15;;
64601;SDS011;51013;42.630;23.192;2022-11-14T04:11:54;0.17;;;0.17;;
64601;SDS011;51013;42.630;23.192;2022-11-14T04:14:21;0.28;;;0.28;;
64601;SDS011;51013;42.630;23.192;2022-11-14T04:16:49;0.05;;;0.05;;
64601;SDS011;51013;42.630;23.192;2022-11-14T04:19:16;0.10;;;0.10;;
64601;SDS011;51013;42.630;23.192;2022-11-14T04:21:44;0.40;;;0.38;;
64601;SDS011;51013;42.630;23.192;2022-11-14T04:24:11;0.17;;;0.17;;
64601;SDS011;51013;42.630;23.192;2022-11-14T04:26:38;0.75;;;0.55;;
64601;SDS011;51013;42.630;23.192;2022-11-14T04:29:05;4.38;;;0.80;;
64601;SDS011;51013;42.630;23.192;2022-11-14T04:31:32;0.55;;;0.45;;
64601;SDS011;51013;42.630;23.192;2022-11-14T04:33:59;0.10;;;0.10;;
64601;SDS011;51013;42.630;23.192;2022-11-14T04:36:26;0.57;;;0.25;;
64601;SDS011;51013;42.630;23.192;2022-11-14T04:38:55;0.20;;;0.20;;
64601;SDS011;51013;42.630;23.192;2022-11-14T04:41:22;0.85;;;0.65;;
64601;SDS011;51013;42.630;23.192;2022-11-14T04:43:50;0.00;;;0.00;;
64601;SDS011;51013;42.630;23.192;2022-11-14T04:46:17;0.03;;;0.03;;
64601;SDS011;51013;42.630;23.192;2022-11-14T04:48:44;0.50;;;0.50;;
64601;SDS011;51013;42.630;23.192;2022-11-14T04:51:11;0.77;;;0.35;;
64601;SDS011;51013;42.630;23.192;2022-11-14T04:53:38;0.50;;;0.47;;
64601;SDS011;51013;42.630;23.192;2022-11-14T04:56:07;0.30;;;0.28;;
64601;SDS011;51013;42.630;23.192;2022-11-14T04:58:33;0.85;;;0.80;;
64601;SDS011;51013;42.630;23.192;2022-11-14T05:01:05;14.15;;;1.10;;
64601;SDS011;51013;42.630;23.192;2022-11-14T05:03:33;0.68;;;0.68;;
64601;SDS011;51013;42.630;23.192;2022-11-14T05:06:00;0.17;;;0.17;;
64601;SDS011;51013;42.630;23.192;2022-11-14T05:08:27;0.55;;;0.47;;
64601;SDS011;51013;42.630;23.192;2022-11-14T05:10:55;8.52;;;1.05;;
64601;SDS011;51013;42.630;23.192;2022-11-14T05:13:26;0.77;;;0.45;;
64601;SDS011;51013;42.630;23.192;2022-11-14T05:15:53;0.85;;;0.32;;
64601;SDS011;51013;42.630;23.192;2022-11-14T05:18:24;0.10;;;0.10;;
64601;SDS011;51013;42.630;23.192;2022-11-14T05:20:53;0.30;;;0.30;;
64601;SDS011;51013;42.630;23.192;2022-11-14T05:23:24;1.70;;;1.15;;
64601;SDS011;51013;42.630;23.192;2022-11-14T05:26:00;1.08;;;0.73;;
64601;SDS011;51013;42.630;23.192;2022-11-14T05:28:29;1.60;;;0.88;;
64601;SDS011;51013;42.630;23.192;2022-11-14T05:30:59;0.65;;;0.52;;
64601;SDS011;51013;42.630;23.192;2022-11-14T05:33:27;0.95;;;0.65;;
64601;SDS011;51013;42.630;23.192;2022-11-14T05:35:54;0.50;;;0.45;;
64601;SDS011;51013;42.630;23.192;2022-11-14T05:38:22;0.55;;;0.38;;
64601;SDS011;51013;42.630;23.192;2022-11-14T05:40:49;0.85;;;0.85;;
64601;SDS011;51013;42.630;23.192;2022-11-14T05:43:16;0.70;;;0.65;;
64601;SDS011;51013;42.630;23.192;2022-11-14T05:45:44;2.00;;;1.35;;
64601;SDS011;51013;42.630;23.192;2022-11-14T05:48:11;1.35;;;1.05;;
64601;SDS011;51013;42.630;23.192;2022-11-14T05:50:38;1.38;;;0.60;;
64601;SDS011;51013;42.630;23.192;2022-11-14T05:53:05;1.48;;;1.08;;
64601;SDS011;51013;42.630;23.192;2022-11-14T05:55:32;1.77;;;1.10;;
64601;SDS011;51013;42.630;23.192;2022-11-14T05:57:59;0.70;;;0.65;;
64601;SDS011;51013;42.630;23.192;2022-11-14T06:00:26;0.68;;;0.63;;
64601;SDS011;51013;42.630;23.192;2022-11-14T06:02:56;0.40;;;0.40;;
64601;SDS011;51013;42.630;23.192;2022-11-14T06:05:23;0.88;;;0.88;;
64601;SDS011;51013;42.630;23.192;2022-11-14T06:07:53;0.40;;;0.40;;
64601;SDS011;51013;42.630;23.192;2022-11-14T06:10:21;7.72;;;1.65;;
64601;SDS011;51013;42.630;23.192;2022-11-14T06:12:48;1.30;;;1.08;;
64601;SDS011;51013;42.630;23.192;2022-11-14T06:15:15;0.65;;;0.52;;
64601;SDS011;51013;42.630;23.192;2022-11-14T06:17:42;0.95;;;0.93;;
64601;SDS011;51013;42.630;23.192;2022-11-14T06:20:12;1.02;;;0.93;;
64601;SDS011;51013;42.630;23.192;2022-11-14T06:22:39;0.10;;;0.10;;
64601;SDS011;51013;42.630;23.192;2022-11-14T06:25:07;2.03;;;1.77;;
64601;SDS011;51013;42.630;23.192;2022-11-14T06:27:34;3.53;;;2.33;;
64601;SDS011;51013;42.630;23.192;2022-11-14T06:30:01;1.23;;;1.13;;
64601;SDS011;51013;42.630;23.192;2022-11-14T06:32:29;1.20;;;1.10;;
64601;SDS011;51013;42.630;23.192;2022-11-14T06:34:56;0.47;;;0.45;;
64601;SDS011;51013;42.630;23.192;2022-11-14T06:37:27;3.22;;;1.83;;
64601;SDS011;51013;42.630;23.192;2022-11-14T06:39:55;0.47;;;0.43;;
64601;SDS011;51013;42.630;23.192;2022-11-14T06:42:21;1.08;;;0.95;;
64601;SDS011;51013;42.630;23.192;2022-11-14T06:44:48;0.52;;;0.32;;
64601;SDS011;51013;42.630;23.192;2022-11-14T06:47:15;1.02;;;0.77;;
64601;SDS011;51013;42.630;23.192;2022-11-14T06:49:42;0.38;;;0.38;;
64601;SDS011;51013;42.630;23.192;2022-11-14T06:52:09;0.63;;;0.50;;
64601;SDS011;51013;42.630;23.192;2022-11-14T06:54:37;2.15;;;1.42;;
64601;SDS011;51013;42.630;23.192;2022-11-14T06:57:04;3.40;;;1.73;;
64601;SDS011;51013;42.630;23.192;2022-11-14T06:59:31;3.67;;;0.68;;
64601;SDS011;51013;42.630;23.192;2022-11-14T07:01:58;1.13;;;1.02;;
64601;SDS011;51013;42.630;23.192;2022-11-14T07:04:26;0.43;;;0.43;;
64601;SDS011;51013;42.630;23.192;2022-11-14T07:06:53;0.68;;;0.68;;
64601;SDS011;51013;42.630;23.192;2022-11-14T07:09:20;1.50;;;0.88;;
64601;SDS011;51013;42.630;23.192;2022-11-14T07:11:48;0.75;;;0.75;;
64601;SDS011;51013;42.630;23.192;2022-11-14T07:14:15;2.58;;;2.03;;
64601;SDS011;51013;42.630;23.192;2022-11-14T07:16:42;0.80;;;0.75;;
64601;SDS011;51013;42.630;23.192;2022-11-14T07:19:09;1.65;;;1.30;;
64601;SDS011;51013;42.630;23.192;2022-11-14T07:21:36;1.92;;;1.70;;
64601;SDS011;51013;42.630;23.192;2022-11-14T07:24:04;1.65;;;1.27;;
64601;SDS011;51013;42.630;23.192;2022-11-14T07:26:32;3.70;;;2.55;;
64601;SDS011;51013;42.630;23.192;2022-11-14T07:29:00;2.47;;;1.27;;
64601;SDS011;51013;42.630;23.192;2022-11-14T07:31:28;0.90;;;0.90;;
64601;SDS011;51013;42.630;23.192;2022-11-14T07:33:55;0.88;;;0.85;;
64601;SDS011;51013;42.630;23.192;2022-11-14T07:36:22;5.70;;;1.48;;
64601;SDS011;51013;42.630;23.192;2022-11-14T07:38:49;2.05;;;1.30;;
64601;SDS011;51013;42.630;23.192;2022-11-14T07:41:16;0.68;;;0.68;;
64601;SDS011;51013;42.630;23.192;2022-11-14T07:43:43;1.25;;;0.80;;
64601;SDS011;51013;42.630;23.192;2022-11-14T07:46:12;0.68;;;0.45;;
64601;SDS011;51013;42.630;23.192;2022-11-14T07:48:41;0.68;;;0.68;;
64601;SDS011;51013;42.630;23.192;2022-11-14T07:51:09;2.05;;;1.08;;
64601;SDS011;51013;42.630;23.192;2022-11-14T07:53:42;0.75;;;0.75;;
64601;SDS011;51013;42.630;23.192;2022-11-14T07:56:09;0.95;;;0.85;;
64601;SDS011;51013;42.630;23.192;2022-11-14T07:58:37;2.80;;;1.17;;
64601;SDS011;51013;42.630;23.192;2022-11-14T08:01:06;0.60;;;0.60;;
64601;SDS011;51013;42.630;23.192;2022-11-14T08:03:36;0.38;;;0.38;;
64601;SDS011;51013;42.630;23.192;2022-11-14T08:06:04;0.50;;;0.40;;
64601;SDS011;51013;42.630;23.192;2022-11-14T08:08:33;1.88;;;1.75;;
64601;SDS011;51013;42.630;23.192;2022-11-14T08:11:00;1.83;;;1.25;;
64601;SDS011;51013;42.630;23.192;2022-11-14T08:13:28;1.05;;;0.30;;
64601;SDS011;51013;42.630;23.192;2022-11-14T08:15:55;1.88;;;1.33;;
64601;SDS011;51013;42.630;23.192;2022-11-14T08:18:24;0.73;;;0.73;;
64601;SDS011;51013;42.630;23.192;2022-11-14T08:20:52;5.55;;;1.95;;
64601;SDS011;51013;42.630;23.192;2022-11-14T08:23:21;3.40;;;1.42;;
64601;SDS011;51013;42.630;23.192;2022-11-14T08:25:49;1.80;;;1.58;;
64601;SDS011;51013;42.630;23.192;2022-11-14T08:28:15;2.47;;;1.50;;
64601;SDS011;51013;42.630;23.192;2022-11-14T08:30:42;2.55;;;2.35;;
64601;SDS011;51013;42.630;23.192;2022-11-14T08:33:09;1.27;;;1.00;;
64601;SDS011;51013;42.630;23.192;2022-11-14T08:35:36;3.60;;;1.88;;
64601;SDS011;51013;42.630;23.192;2022-11-14T08:38:06;4.57;;;1.67;;
64601;SDS011;51013;42.630;23.192;2022-11-14T08:40:32;6.63;;;1.88;;
64601;SDS011;51013;42.630;23.192;2022-11-14T08:43:01;2.25;;;1.30;;
64601;SDS011;51013;42.630;23.192;2022-11-14T08:45:31;2.38;;;1.10;;
64601;SDS011;51013;42.630;23.192;2022-11-14T08:47:57;5.15;;;3.08;;
64601;SDS011;51013;42.630;23.192;2022-11-14T08:50:25;6.47;;;2.05;;
64601;SDS011;51013;42.630;23.192;2022-11-14T08:52:52;2.38;;;1.88;;
64601;SDS011;51013;42.630;23.192;2022-11-14T08:55:20;3.78;;;1.50;;
64601;SDS011;51013;42.630;23.192;2022-11-14T08:57:47;1.52;;;0.90;;
64601;SDS011;51013;42.630;23.192;2022-11-14T09:00:14;2.00;;;1.83;;
64601;SDS011;51013;42.630;23.192;2022-11-14T09:02:42;4.57;;;2.53;;
64601;SDS011;51013;42.630;23.192;2022-11-14T09:05:09;1.75;;;1.15;;
64601;SDS011;51013;42.630;23.192;2022-11-14T09:07:36;3.25;;;1.45;;
64601;SDS011;51013;42.630;23.192;2022-11-14T09:10:03;1.13;;;1.00;;
64601;SDS011;51013;42.630;23.192;2022-11-14T09:12:33;2.45;;;1.25;;
64601;SDS011;51013;42.630;23.192;2022-11-14T09:15:01;1.35;;;1.25;;
64601;SDS011;51013;42.630;23.192;2022-11-14T09:17:28;1.50;;;1.30;;
64601;SDS011;51013;42.630;23.192;2022-11-14T09:19:55;0.52;;;0.52;;
64601;SDS011;51013;42.630;23.192;2022-11-14T09:22:22;3.55;;;0.95;;
64601;SDS011;51013;42.630;23.192;2022-11-14T09:24:49;3.35;;;1.20;;
64601;SDS011;51013;42.630;23.192;2022-11-14T09:27:16;10.77;;;3.05;;
64601;SDS011;51013;42.630;23.192;2022-11-14T09:29:44;5.85;;;2.20;;
64601;SDS011;51013;42.630;23.192;2022-11-14T09:32:11;3.38;;;2.95;;
64601;SDS011;51013;42.630;23.192;2022-11-14T09:34:39;2.28;;;1.77;;
64601;SDS011;51013;42.630;23.192;2022-11-14T09:37:09;4.30;;;2.75;;
64601;SDS011;51013;42.630;23.192;2022-11-14T09:39:37;3.97;;;2.40;;
64601;SDS011;51013;42.630;23.192;2022-11-14T09:42:14;4.60;;;2.25;;
64601;SDS011;51013;42.630;23.192;2022-11-14T09:44:55;1.15;;;1.05;;
64601;SDS011;51013;42.630;23.192;2022-11-14T09:47:24;3.67;;;3.28;;
64601;SDS011;51013;42.630;23.192;2022-11-14T09:49:57;4.22;;;1.98;;
64601;SDS011;51013;42.630;23.192;2022-11-14T09:52:30;2.25;;;2.05;;
64601;SDS011;51013;42.630;23.192;2022-11-14T09:55:02;4.28;;;3.15;;
64601;SDS011;51013;42.630;23.192;2022-11-14T09:57:35;2.65;;;2.30;;
64601;SDS011;51013;42.630;23.192;2022-11-14T10:00:12;5.45;;;3.63;;
64601;SDS011;51013;42.630;23.192;2022-11-14T10:02:45;8.23;;;4.18;;
64601;SDS011;51013;42.630;23.192;2022-11-14T10:05:29;6.95;;;3.03;;
64601;SDS011;51013;42.630;23.192;2022-11-14T10:08:12;3.42;;;2.53;;
64601;SDS011;51013;42.630;23.192;2022-11-14T10:10:50;5.72;;;4.50;;
64601;SDS011;51013;42.630;23.192;2022-11-14T10:13:25;6.70;;;4.65;;
64601;SDS011;51013;42.630;23.192;2022-11-14T10:16:06;6.90;;;3.60;;
64601;SDS011;51013;42.630;23.192;2022-11-14T10:18:45;4.18;;;2.78;;
64601;SDS011;51013;42.630;23.192;2022-11-14T10:21:30;5.57;;;2.58;;
64601;SDS011;51013;42.630;23.192;2022-11-14T10:26:45;3.78;;;2.65;;
64601;SDS011;51013;42.630;23.192;2022-11-14T10:29:41;4.13;;;2.47;;
64601;SDS011;51013;42.630;23.192;2022-11-14T10:32:33;5.65;;;2.33;;
64601;SDS011;51013;42.630;23.192;2022-11-14T10:35:13;7.07;;;3.20;;
64601;SDS011;51013;42.630;23.192;2022-11-14T10:40:16;8.00;;;2.72;;
64601;SDS011;51013;42.630;23.192;2022-11-14T10:42:46;2.30;;;1.42;;
64601;SDS011;51013;42.630;23.192;2022-11-14T10:45:17;4.28;;;2.60;;
64601;SDS011;51013;42.630;23.192;2022-11-14T10:47:53;2.75;;;1.55;;
64601;SDS011;51013;42.630;23.192;2022-11-14T10:50:24;2.10;;;1.73;;
64601;SDS011;51013;42.630;23.192;2022-11-14T10:55:23;1.40;;;1.30;;
64601;SDS011;51013;42.630;23.192;2022-11-14T10:57:51;7.80;;;2.75;;
64601;SDS011;51013;42.630;23.192;2022-11-14T11:00:18;7.82;;;2.67;;
64601;SDS011;51013;42.630;23.192;2022-11-14T11:02:48;4.63;;;3.25;;
64601;SDS011;51013;42.630;23.192;2022-11-14T11:05:19;6.63;;;3.65;;
64601;SDS011;51013;42.630;23.192;2022-11-14T11:07:47;5.43;;;3.50;;
64601;SDS011;51013;42.630;23.192;2022-11-14T11:10:33;6.63;;;2.67;;
64601;SDS011;51013;42.630;23.192;2022-11-14T11:13:31;5.30;;;4.30;;
64601;SDS011;51013;42.630;23.192;2022-11-14T11:16:00;9.63;;;4.85;;
64601;SDS011;51013;42.630;23.192;2022-11-14T11:18:30;9.80;;;4.65;;
64601;SDS011;51013;42.630;23.192;2022-11-14T11:21:06;9.95;;;4.07;;
64601;SDS011;51013;42.630;23.192;2022-11-14T11:23:36;5.68;;;3.80;;
64601;SDS011;51013;42.630;23.192;2022-11-14T11:26:18;9.23;;;3.25;;
64601;SDS011;51013;42.630;23.192;2022-11-14T11:28:59;4.25;;;3.85;;
64601;SDS011;51013;42.630;23.192;2022-11-14T11:31:34;4.78;;;3.55;;
64601;SDS011;51013;42.630;23.192;2022-11-14T11:34:16;3.50;;;2.33;;
64601;SDS011;51013;42.630;23.192;2022-11-14T11:36:50;6.07;;;3.30;;
64601;SDS011;51013;42.630;23.192;2022-11-14T11:39:22;2.40;;;2.10;;
64601;SDS011;51013;42.630;23.192;2022-11-14T11:41:53;4.35;;;3.08;;
64601;SDS011;51013;42.630;23.192;2022-11-14T11:44:30;4.60;;;3.97;;
64601;SDS011;51013;42.630;23.192;2022-11-14T11:47:03;5.28;;;4.07;;
64601;SDS011;51013;42.630;23.192;2022-11-14T11:49:38;9.55;;;6.20;;
64601;SDS011;51013;42.630;23.192;2022-11-14T11:52:15;11.75;;;5.68;;
64601;SDS011;51013;42.630;23.192;2022-11-14T11:54:51;7.82;;;4.80;;
64601;SDS011;51013;42.630;23.192;2022-11-14T11:57:27;10.00;;;5.68;;
64601;SDS011;51013;42.630;23.192;2022-11-14T11:59:58;7.07;;;4.32;;
64601;SDS011;51013;42.630;23.192;2022-11-14T12:02:30;8.65;;;5.78;;
64601;SDS011;51013;42.630;23.192;2022-11-14T12:04:58;6.25;;;4.90;;
64601;SDS011;51013;42.630;23.192;2022-11-14T12:07:32;9.45;;;6.40;;
64601;SDS011;51013;42.630;23.192;2022-11-14T12:10:10;4.55;;;3.17;;
64601;SDS011;51013;42.630;23.192;2022-11-14T12:15:45;8.27;;;4.55;;
64601;SDS011;51013;42.630;23.192;2022-11-14T12:18:22;6.22;;;4.78;;
64601;SDS011;51013;42.630;23.192;2022-11-14T12:21:09;5.82;;;4.18;;
64601;SDS011;51013;42.630;23.192;2022-11-14T12:23:54;7.97;;;3.95;;
64601;SDS011;51013;42.630;23.192;2022-11-14T12:26:39;7.00;;;3.70;;
64601;SDS011;51013;42.630;23.192;2022-11-14T12:29:38;9.75;;;4.50;;
64601;SDS011;51013;42.630;23.192;2022-11-14T12:32:14;8.00;;;5.55;;
64601;SDS011;51013;42.630;23.192;2022-11-14T12:34:55;7.47;;;5.15;;
64601;SDS011;51013;42.630;23.192;2022-11-14T12:37:25;9.68;;;4.63;;
64601;SDS011;51013;42.630;23.192;2022-11-14T12:40:00;7.85;;;5.32;;
64601;SDS011;51013;42.630;23.192;2022-11-14T12:42:29;9.50;;;4.80;;
64601;SDS011;51013;42.630;23.192;2022-11-14T12:44:57;8.63;;;4.43;;
64601;SDS011;51013;42.630;23.192;2022-11-14T12:47:25;10.45;;;6.40;;
64601;SDS011;51013;42.630;23.192;2022-11-14T12:49:56;7.32;;;4.00;;
64601;SDS011;51013;42.630;23.192;2022-11-14T12:52:51;9.93;;;4.55;;
64601;SDS011;51013;42.630;23.192;2022-11-14T12:58:30;4.40;;;2.95;;
64601;SDS011;51013;42.630;23.192;2022-11-14T13:01:23;6.50;;;3.83;;
64601;SDS011;51013;42.630;23.192;2022-11-14T13:04:01;5.82;;;3.85;;
64601;SDS011;51013;42.630;23.192;2022-11-14T13:06:39;5.57;;;3.33;;
64601;SDS011;51013;42.630;23.192;2022-11-14T13:09:22;5.57;;;4.00;;
64601;SDS011;51013;42.630;23.192;2022-11-14T13:12:00;6.47;;;3.15;;
64601;SDS011;51013;42.630;23.192;2022-11-14T13:14:59;5.07;;;3.33;;
64601;SDS011;51013;42.630;23.192;2022-11-14T13:18:03;4.40;;;2.97;;
64601;SDS011;51013;42.630;23.192;2022-11-14T13:21:00;28.20;;;3.17;;
64601;SDS011;51013;42.630;23.192;2022-11-14T13:23:52;5.85;;;1.85;;
64601;SDS011;51013;42.630;23.192;2022-11-14T13:35:39;4.40;;;2.95;;
64601;SDS011;51013;42.630;23.192;2022-11-14T13:38:27;5.45;;;4.03;;
64601;SDS011;51013;42.630;23.192;2022-11-14T13:41:10;5.68;;;3.17;;
64601;SDS011;51013;42.630;23.192;2022-11-14T13:43:52;7.60;;;3.08;;
64601;SDS011;51013;42.630;23.192;2022-11-14T13:46:31;5.90;;;3.05;;
64601;SDS011;51013;42.630;23.192;2022-11-14T13:49:22;13.20;;;5.72;;
64601;SDS011;51013;42.630;23.192;2022-11-14T13:52:04;8.23;;;4.15;;
64601;SDS011;51013;42.630;23.192;2022-11-14T13:54:31;5.72;;;3.30;;
64601;SDS011;51013;42.630;23.192;2022-11-14T13:57:00;5.88;;;4.82;;
64601;SDS011;51013;42.630;23.192;2022-11-14T13:59:41;15.98;;;8.40;;
64601;SDS011;51013;42.630;23.192;2022-11-14T14:02:35;18.23;;;7.72;;
64601;SDS011;51013;42.630;23.192;2022-11-14T14:05:15;16.63;;;10.02;;
64601;SDS011;51013;42.630;23.192;2022-11-14T14:08:00;7.43;;;5.18;;
64601;SDS011;51013;42.630;23.192;2022-11-14T14:10:40;6.95;;;4.88;;
64601;SDS011;51013;42.630;23.192;2022-11-14T14:13:28;8.63;;;4.95;;
64601;SDS011;51013;42.630;23.192;2022-11-14T14:16:06;7.57;;;3.97;;
64601;SDS011;51013;42.630;23.192;2022-11-14T14:18:43;7.32;;;4.53;;
64601;SDS011;51013;42.630;23.192;2022-11-14T14:21:18;6.90;;;5.15;;
64601;SDS011;51013;42.630;23.192;2022-11-14T14:23:58;7.15;;;4.68;;
64601;SDS011;51013;42.630;23.192;2022-11-14T14:26:34;3.78;;;2.53;;
64601;SDS011;51013;42.630;23.192;2022-11-14T14:29:15;5.35;;;4.38;;
64601;SDS011;51013;42.630;23.192;2022-11-14T14:31:48;2.67;;;2.42;;
64601;SDS011;51013;42.630;23.192;2022-11-14T14:34:22;6.22;;;3.33;;
64601;SDS011;51013;42.630;23.192;2022-11-14T14:36:50;5.13;;;4.05;;
64601;SDS011;51013;42.630;23.192;2022-11-14T14:39:21;6.03;;;4.45;;
64601;SDS011;51013;42.630;23.192;2022-11-14T14:41:49;10.70;;;5.95;;
64601;SDS011;51013;42.630;23.192;2022-11-14T14:44:24;9.35;;;4.95;;
64601;SDS011;51013;42.630;23.192;2022-11-14T14:46:53;37.80;;;21.58;;
64601;SDS011;51013;42.630;23.192;2022-11-14T14:49:21;9.20;;;6.13;;
64601;SDS011;51013;42.630;23.192;2022-11-14T14:51:51;8.23;;;4.85;;
64601;SDS011;51013;42.630;23.192;2022-11-14T14:54:22;5.18;;;3.55;;
64601;SDS011;51013;42.630;23.192;2022-11-14T14:56:51;11.02;;;5.82;;
64601;SDS011;51013;42.630;23.192;2022-11-14T14:59:20;7.25;;;4.18;;
64601;SDS011;51013;42.630;23.192;2022-11-14T15:01:49;15.30;;;6.90;;
64601;SDS011;51013;42.630;23.192;2022-11-14T15:04:17;12.07;;;4.47;;
64601;SDS011;51013;42.630;23.192;2022-11-14T15:06:46;6.93;;;3.95;;
64601;SDS011;51013;42.630;23.192;2022-11-14T15:09:15;3.28;;;2.97;;
64601;SDS011;51013;42.630;23.192;2022-11-14T15:11:47;10.88;;;5.00;;
64601;SDS011;51013;42.630;23.192;2022-11-14T15:16:46;7.15;;;4.20;;
64601;SDS011;51013;42.630;23.192;2022-11-14T15:19:16;13.77;;;5.18;;